createdAt,value
2023-04-25T08:30:33.121Z,18.1
2023-04-25T08:36:35.497Z,18.1
2023-04-25T08:42:29.801Z,18.1
2023-04-25T08:48:26.100Z,18.3
2023-04-25T08:54:35.075Z,18.3
2023-04-25T09:00:12.689Z,18.3
2023-04-25T09:06:11.196Z,18.2
2023-04-25T09:12:03.302Z,18.1
2023-04-25T09:17:42.298Z,18.1
2023-04-25T09:23:43.005Z,18.1
2023-04-25T09:29:36.605Z,18.3
2023-04-25T09:35:28.905Z,18.4
2023-04-25T09:41:22.191Z,18.3
2023-04-25T09:47:13.831Z,18.3
2023-04-25T09:53:05.862Z,18.3
2023-04-25T09:58:58.752Z,18.1
2023-04-25T10:04:51.656Z,18.1
2023-04-25T10:10:42.916Z,18.1
2023-04-25T10:16:36.297Z,18
2023-04-25T10:22:12.580Z,17.9
2023-04-25T10:28:02.792Z,17.9
2023-04-25T10:33:56.313Z,17.9
2023-04-25T10:39:47.512Z,17.8
2023-04-25T10:45:38.843Z,17.7
2023-04-25T10:51:37.332Z,17.7
2023-04-25T10:57:34.210Z,17.6
2023-04-25T11:03:40.315Z,17.7
2023-04-25T11:10:03.281Z,17.7
2023-04-25T11:15:58.853Z,17.6
2023-04-25T11:22:04.326Z,17.6
2023-04-25T11:27:58.009Z,17.6
2023-04-25T11:33:50.994Z,17.5
2023-04-25T11:39:42.642Z,17.5
2023-04-25T11:45:45.804Z,17.4
2023-04-25T11:51:43.928Z,17.4
2023-04-25T11:57:34.564Z,17.4
2023-04-25T12:03:37.475Z,17.4
2023-04-25T12:09:45.674Z,17.4
2023-04-25T12:15:05.992Z,17.4
2023-04-25T12:20:59.121Z,17.3
2023-04-25T12:26:56.247Z,17.3
2023-04-25T12:32:56.160Z,17.3
2023-04-25T12:38:52.187Z,17.3
2023-04-25T12:44:28.512Z,17.3
2023-04-25T12:50:30.888Z,17.3
2023-04-25T12:56:25.465Z,17.2
2023-04-25T13:02:18.396Z,17.2
2023-04-25T13:08:11.906Z,17.2
2023-04-25T13:14:09.782Z,17.2
2023-04-25T13:20:02.380Z,17.2
2023-04-25T13:25:38.339Z,17.2
2023-04-25T13:31:15.904Z,17.1
2023-04-25T13:36:53.256Z,17.1
2023-04-25T13:42:29.868Z,17.1
2023-04-25T13:48:44.352Z,17.1
2023-04-25T13:54:33.369Z,17.1
2023-04-25T14:00:25.780Z,17.1
2023-04-25T14:06:20.208Z,17.1
2023-04-25T14:12:10.932Z,17.1
2023-04-25T14:18:02.486Z,17.1
2023-04-25T14:23:39.755Z,17.1
2023-04-25T14:29:30.669Z,17.1
2023-04-25T14:35:06.557Z,17.1
2023-04-25T14:40:59.157Z,17.1
2023-04-25T14:46:04.950Z,17.1
2023-04-25T14:51:10.370Z,17.1
2023-04-25T14:56:31.955Z,17.1
2023-04-25T15:01:52.805Z,17.1
2023-04-25T15:07:33.963Z,17.1
2023-04-25T15:13:11.497Z,17.1
2023-04-25T15:18:52.509Z,17.1
2023-04-25T15:24:28.042Z,17.1
2023-04-25T15:30:05.269Z,17.1
2023-04-25T15:35:59.350Z,17.1
2023-04-25T15:41:50.354Z,17.1
2023-04-25T15:47:45.808Z,17.1
2023-04-25T15:53:23.596Z,17.1
2023-04-25T15:58:45.683Z,17.1
2023-04-25T16:04:41.061Z,17.1
2023-04-25T17:05:59.635Z,16.9
2023-04-25T17:11:51.928Z,16.9
2023-04-25T17:17:38.237Z,16.9
2023-04-25T17:38:31.460Z,17.1
2023-04-25T18:04:53.667Z,16.9
2023-04-25T18:10:30.549Z,16.9
2023-04-25T18:15:51.404Z,16.9
2023-04-25T18:21:43.495Z,16.9
2023-04-25T18:27:22.505Z,16.9
2023-04-25T18:32:50.184Z,16.9
2023-04-25T18:38:54.524Z,16.9
2023-04-25T18:45:26.429Z,16.9
2023-04-25T18:50:51.708Z,16.9
2023-04-25T18:56:28.915Z,16.9
2023-04-25T19:02:22.560Z,16.9
2023-04-25T19:08:03.004Z,16.9
2023-04-25T19:13:50.382Z,16.8
2023-04-25T19:19:28.687Z,16.9
2023-04-25T19:25:41.999Z,16.8
2023-04-25T19:31:20.007Z,16.8
2023-04-25T19:36:57.911Z,16.8
2023-04-25T19:42:37.514Z,16.8
2023-04-25T19:48:16.782Z,16.8
2023-04-25T19:53:38.757Z,16.8
2023-04-25T19:59:17.891Z,16.8
2023-04-25T20:04:57.694Z,16.8
2023-04-25T20:10:35.913Z,16.8
2023-04-25T20:16:13.686Z,16.8
2023-04-25T20:21:51.456Z,16.8
2023-04-25T20:27:29.462Z,16.8
2023-04-25T20:33:09.301Z,16.7
2023-04-25T20:39:00.935Z,16.7
2023-04-25T20:44:52.183Z,16.7
2023-04-25T20:50:29.070Z,16.8
2023-04-25T20:56:21.836Z,17.2
2023-04-25T21:01:57.341Z,17.6
2023-04-25T21:07:50.947Z,17.9
2023-04-25T21:13:26.996Z,17.9
2023-04-25T21:19:19.964Z,17.9
2023-04-25T21:25:11.823Z,18
2023-04-25T21:30:47.988Z,18.2
2023-04-25T21:36:40.100Z,18.2
2023-04-25T21:42:16.637Z,18.2
2023-04-25T21:48:21.796Z,18.1
2023-04-25T21:53:58.928Z,18.1
2023-04-25T21:59:35.542Z,18.3
2023-04-25T22:05:29.250Z,18.4
2023-04-25T22:10:45.163Z,18.4
2023-04-25T22:16:23.505Z,18.3
2023-04-25T22:22:00.363Z,18.2
2023-04-25T22:27:35.507Z,18.1
2023-04-25T22:33:27.742Z,18.2
2023-04-25T22:39:18.364Z,18.4
2023-04-25T22:45:09.585Z,18.4
